Time;durP1;ratioP1;P1;durP2;ratioP2;P2;SDS_P1;SDS_P2;PMS_P1;PMS_P2;Temp;Humidity;BMP_temperature;BMP_pressure;BME280_temperature;BME280_humidity;BME280_pressure;Samples;Min_cycle;Max_cycle;Signal;HPM_P1;HPM_P2
2023/10/13 00:00:30;;;;;;;128.13;31.60;;;20.70;99.90;;;;;;6196324;23;20070;-78
2023/10/13 00:03:02;;;;;;;63.85;24.77;;;20.30;99.90;;;;;;6221764;23;20083;-78
2023/10/13 00:05:31;;;;;;;126.45;30.02;;;20.60;99.90;;;;;;6171805;23;20055;-78
2023/10/13 00:08:02;;;;;;;93.95;29.08;;;20.70;99.90;;;;;;6221919;23;20008;-78
2023/10/13 00:10:33;;;;;;;103.15;28.15;;;20.30;99.90;;;;;;6196533;23;20008;-78
2023/10/13 00:13:11;;;;;;;92.38;28.85;;;20.30;99.90;;;;;;6221764;23;20009;-78
2023/10/13 00:15:56;;;;;;;93.57;29.00;;;20.90;99.90;;;;;;6195839;23;20250;-78
2023/10/13 00:18:33;;;;;;;;;;;20.40;99.90;;;;;;6197008;23;20019;-78
2023/10/13 00:20:59;;;;;;;96.80;30.63;;;20.80;99.90;;;;;;6222122;23;19914;-78
2023/10/13 00:23:27;;;;;;;125.75;32.47;;;21.10;99.90;;;;;;6221981;23;20071;-78
2023/10/13 00:25:59;;;;;;;96.93;31.95;;;20.50;99.90;;;;;;6221521;23;20059;-77
2023/10/13 00:28:35;;;;;;;87.47;32.53;;;21.20;99.90;;;;;;6221785;23;20030;-78
2023/10/13 00:31:12;;;;;;;84.65;32.35;;;20.80;99.90;;;;;;6197028;23;20152;-78
2023/10/13 00:33:38;;;;;;;91.07;32.92;;;20.90;99.90;;;;;;6222000;23;20310;-78
2023/10/13 00:36:07;;;;;;;86.15;30.80;;;21.40;99.90;;;;;;6220935;23;20017;-78
2023/10/13 00:38:32;;;;;;;80.28;31.92;;;20.90;99.90;;;;;;6196647;23;20018;-78
2023/10/13 00:41:05;;;;;;;107.60;35.38;;;21.20;99.90;;;;;;6171713;23;20047;-77
2023/10/13 00:43:32;;;;;;;120.47;35.70;;;21.00;99.90;;;;;;6195849;23;20012;-78
2023/10/13 00:48:34;;;;;;;114.60;34.22;;;21.40;99.90;;;;;;6221240;23;20013;-79
2023/10/13 00:51:02;;;;;;;114.05;34.90;;;21.60;99.90;;;;;;6221311;23;20245;-77
2023/10/13 00:53:30;;;;;;;111.57;35.22;;;21.80;99.90;;;;;;6220996;23;20247;-77
2023/10/13 00:55:56;;;;;;;113.35;34.53;;;21.70;99.90;;;;;;6196013;23;20079;-78
2023/10/13 00:58:23;;;;;;;119.20;35.15;;;21.70;99.90;;;;;;6171535;23;20012;-79
2023/10/13 01:00:56;;;;;;;120.38;35.67;;;21.40;99.90;;;;;;6173994;23;20016;-77
2023/10/13 01:03:26;;;;;;;119.28;34.55;;;22.00;99.90;;;;;;6199221;23;20079;-79
2023/10/13 01:05:58;;;;;;;109.00;33.42;;;21.60;99.90;;;;;;6198588;23;20008;-78
2023/10/13 01:08:37;;;;;;;106.03;35.05;;;21.90;99.90;;;;;;6221986;23;20096;-79
2023/10/13 01:11:07;;;;;;;105.55;35.88;;;21.70;99.90;;;;;;6198127;23;20012;-78
2023/10/13 01:13:36;;;;;;;93.25;30.45;;;22.00;99.90;;;;;;6199077;23;20181;-79
2023/10/13 01:16:07;;;;;;;104.00;33.97;;;22.00;99.90;;;;;;6223710;23;20020;-78
2023/10/13 01:18:39;;;;;;;104.78;33.92;;;22.20;99.90;;;;;;6198085;23;20016;-78
2023/10/13 01:21:06;;;;;;;105.38;33.97;;;22.00;99.90;;;;;;6174372;23;20389;-78
2023/10/13 01:23:37;;;;;;;108.65;34.78;;;21.70;99.90;;;;;;6173563;23;20015;-78
2023/10/13 01:26:05;;;;;;;94.05;32.45;;;21.80;99.90;;;;;;6223453;23;20316;-78
2023/10/13 01:28:44;;;;;;;99.00;33.58;;;21.80;99.90;;;;;;6197296;23;20008;-78
2023/10/13 01:31:12;;;;;;;102.55;33.40;;;22.00;99.90;;;;;;6222683;23;20063;-79
2023/10/13 01:33:38;;;;;;;86.00;31.52;;;21.80;99.90;;;;;;6198732;23;20091;-79
2023/10/13 01:36:09;;;;;;;89.95;31.55;;;21.80;99.90;;;;;;6198391;23;20024;-78
2023/10/13 01:38:37;;;;;;;68.05;27.88;;;22.10;99.90;;;;;;6198418;23;20013;-78
2023/10/13 01:41:08;;;;;;;80.50;29.85;;;22.20;99.90;;;;;;6198564;23;20036;-79
2023/10/13 01:43:34;;;;;;;77.47;30.58;;;22.40;99.90;;;;;;6222751;23;20048;-79
2023/10/13 01:46:03;;;;;;;81.63;28.58;;;22.50;99.90;;;;;;6173345;23;20016;-78
2023/10/13 01:48:32;;;;;;;70.97;28.98;;;22.30;99.90;;;;;;6221258;23;20016;-80
2023/10/13 01:51:01;;;;;;;73.65;27.92;;;22.60;99.90;;;;;;6173840;23;20044;-78
2023/10/13 01:53:29;;;;;;;66.50;26.55;;;22.20;99.90;;;;;;6222218;23;20066;-78
2023/10/13 01:55:58;;;;;;;67.65;27.67;;;22.20;99.90;;;;;;6198259;23;20020;-78
2023/10/13 01:58:26;;;;;;;62.50;26.35;;;22.10;99.90;;;;;;6198017;23;20135;-79
2023/10/13 02:00:52;;;;;;;63.75;26.02;;;22.40;99.90;;;;;;6197980;23;20298;-79
2023/10/13 02:03:18;;;;;;;53.45;24.35;;;22.60;99.90;;;;;;6222392;23;20071;-79
2023/10/13 02:05:48;;;;;;;58.17;25.10;;;22.20;99.90;;;;;;6172702;23;20210;-78
2023/10/13 02:08:24;;;;;;;64.32;23.58;;;22.60;99.90;;;;;;6222242;23;20017;-79
2023/10/13 02:10:55;;;;;;;49.83;23.00;;;22.30;99.90;;;;;;6198429;23;20044;-78
2023/10/13 02:13:22;;;;;;;50.50;22.73;;;22.10;99.90;;;;;;6172366;23;20009;-78
2023/10/13 02:15:52;;;;;;;36.03;19.73;;;22.40;99.90;;;;;;6222972;23;20012;-77
2023/10/13 02:18:26;;;;;;;47.22;22.10;;;22.70;99.90;;;;;;6223085;23;20013;-77
2023/10/13 02:20:58;;;;;;;45.20;22.27;;;22.60;99.90;;;;;;6174609;23;20016;-79
2023/10/13 02:23:29;;;;;;;48.50;23.50;;;22.10;99.90;;;;;;6173703;23;20182;-79
2023/10/13 02:26:03;;;;;;;41.70;21.25;;;22.60;99.90;;;;;;6197919;23;20021;-78
2023/10/13 02:28:33;;;;;;;46.35;23.25;;;22.70;99.90;;;;;;6199357;23;20301;-78
2023/10/13 02:31:03;;;;;;;36.47;20.88;;;22.80;99.90;;;;;;6198024;23;20013;-78
2023/10/13 02:33:30;;;;;;;31.58;19.00;;;22.80;99.90;;;;;;6221503;23;20051;-78
2023/10/13 02:36:04;;;;;;;39.58;21.00;;;22.90;99.90;;;;;;6197519;23;20255;-78
2023/10/13 02:41:25;;;;;;;38.05;20.02;;;22.70;99.90;;;;;;6222717;23;20016;-79
2023/10/13 02:43:52;;;;;;;33.47;17.52;;;22.40;99.90;;;;;;6222642;23;20195;-81
2023/10/13 02:46:21;;;;;;;35.75;19.58;;;22.30;99.90;;;;;;6222854;23;20059;-79
2023/10/13 02:48:52;;;;;;;33.22;18.98;;;22.50;99.90;;;;;;6222994;23;20019;-79
2023/10/13 02:51:31;;;;;;;35.03;17.23;;;22.50;99.90;;;;;;6198152;23;20066;-79
2023/10/13 02:54:02;;;;;;;37.38;17.02;;;22.30;99.90;;;;;;6175529;23;20009;-79
2023/10/13 02:56:29;;;;;;;35.05;18.23;;;22.50;99.90;;;;;;6222682;23;20008;-79
2023/10/13 02:59:04;;;;;;;30.80;16.83;;;22.40;99.90;;;;;;6198079;23;20019;-79
2023/10/13 03:01:34;;;;;;;28.50;17.45;;;22.30;99.90;;;;;;6198011;23;20044;-80
2023/10/13 03:04:08;;;;;;;32.33;17.23;;;23.00;99.90;;;;;;6222557;23;20078;-78
2023/10/13 03:06:35;;;;;;;30.42;16.10;;;22.70;99.90;;;;;;6197384;23;20079;-80
2023/10/13 03:09:18;;;;;;;21.05;14.60;;;22.80;99.90;;;;;;6197179;23;20020;-77
2023/10/13 03:11:51;;;;;;;35.08;18.85;;;22.90;99.90;;;;;;6197213;23;20011;-79
2023/10/13 03:14:24;;;;;;;36.10;19.10;;;22.40;99.90;;;;;;6197700;23;20005;-78
2023/10/13 03:17:08;;;;;;;42.63;21.60;;;22.40;99.90;;;;;;6222765;23;20015;-79
2023/10/13 03:19:36;;;;;;;42.28;23.25;;;22.50;99.90;;;;;;6197946;23;20072;-78
2023/10/13 03:22:10;;;;;;;49.63;24.52;;;22.60;99.90;;;;;;6197460;23;20159;-80
2023/10/13 03:24:36;;;;;;;44.95;22.67;;;22.90;99.90;;;;;;6221875;23;20064;-79
2023/10/13 03:27:09;;;;;;;52.30;24.67;;;22.80;99.90;;;;;;6220788;23;20009;-79
2023/10/13 03:29:43;;;;;;;48.65;24.50;;;22.60;99.90;;;;;;6221583;23;20016;-79
2023/10/13 03:32:17;;;;;;;53.60;23.60;;;22.70;99.90;;;;;;6197100;23;20016;-81
2023/10/13 03:37:19;;;;;;;51.60;24.50;;;23.10;99.90;;;;;;6222201;23;20025;-80
2023/10/13 03:39:46;;;;;;;36.65;21.10;;;23.20;99.90;;;;;;6196885;23;20067;-79
2023/10/13 03:42:24;;;;;;;46.55;23.45;;;23.20;99.90;;;;;;6196672;23;20019;-79
2023/10/13 03:44:50;;;;;;;34.08;21.52;;;22.60;99.90;;;;;;6196862;23;20013;-81
2023/10/13 03:47:18;;;;;;;44.17;22.25;;;22.90;99.90;;;;;;6222548;23;20015;-81
2023/10/13 03:49:45;;;;;;;43.50;20.20;;;22.80;99.90;;;;;;6172760;23;20016;-81
2023/10/13 03:52:13;;;;;;;36.97;17.77;;;23.10;99.90;;;;;;6197132;23;20017;-80
2023/10/13 03:54:40;;;;;;;38.25;19.38;;;23.10;99.90;;;;;;6197767;23;20068;-80
2023/10/13 03:57:11;;;;;;;31.75;16.23;;;23.20;99.90;;;;;;6197418;23;20306;-80
2023/10/13 03:59:38;;;;;;;34.28;17.98;;;23.00;99.90;;;;;;6245508;22;20054;-80
2023/10/13 04:02:11;;;;;;;34.00;17.05;;;22.70;99.90;;;;;;6257490;22;20065;-78
2023/10/13 04:04:53;;;;;;;25.17;15.40;;;22.70;99.90;;;;;;6282130;22;20008;-78
2023/10/13 04:15:43;;;;;;;26.50;15.47;;;23.20;99.90;;;;;;6259696;22;20020;-78
2023/10/13 04:18:33;;;;;;;25.65;15.10;;;23.30;99.90;;;;;;6259404;22;20306;-78
2023/10/13 04:21:11;;;;;;;20.95;12.57;;;23.20;99.90;;;;;;6236899;22;20019;-79
2023/10/13 04:26:37;;;;;;;23.77;15.05;;;23.20;99.90;;;;;;6260369;22;20067;-78
2023/10/13 04:29:10;;;;;;;30.40;16.83;;;23.10;99.90;;;;;;6281924;22;20022;-79
2023/10/13 04:31:59;;;;;;;23.52;15.52;;;23.10;99.90;;;;;;6232596;22;20008;-79
2023/10/13 04:34:28;;;;;;;31.92;17.15;;;23.20;99.90;;;;;;6261323;22;20011;-80
2023/10/13 04:37:11;;;;;;;18.20;12.45;;;22.70;99.90;;;;;;6259465;22;20007;-79
2023/10/13 04:39:38;;;;;;;27.45;15.45;;;23.40;99.90;;;;;;6284351;22;20007;-77
2023/10/13 04:42:39;;;;;;;18.13;13.30;;;23.00;99.90;;;;;;6259262;22;20029;-79
2023/10/13 04:45:00;;;;;;;25.83;14.80;;;22.70;99.90;;;;;;6257327;22;20016;-78
2023/10/13 04:47:29;;;;;;;18.80;12.90;;;23.20;99.90;;;;;;6258340;22;20014;-78
2023/10/13 04:50:00;;;;;;;28.52;15.18;;;23.00;99.90;;;;;;6258740;22;20376;-79
2023/10/13 04:55:17;;;;;;;19.37;13.93;;;23.20;99.90;;;;;;6262625;22;20023;-79
2023/10/13 05:46:48;;;;;;;9.57;7.57;;;23.20;99.90;;;;;;6265333;22;20027;-80
2023/10/13 05:52:07;;;;;;;12.30;8.82;;;22.70;99.90;;;;;;6287903;22;20017;-80
2023/10/13 06:30:19;;;;;;;7.43;6.63;;;22.30;99.90;;;;;;6288403;22;20018;-81
2023/10/13 06:32:46;;;;;;;10.10;7.75;;;23.20;99.90;;;;;;6237359;22;20220;-81
2023/10/13 06:35:23;;;;;;;9.68;7.78;;;23.20;99.90;;;;;;6237906;22;20019;-80
2023/10/13 06:37:50;;;;;;;8.80;6.57;;;22.40;99.90;;;;;;6216137;22;20019;-80
2023/10/13 06:40:25;;;;;;;6.45;5.55;;;22.30;99.90;;;;;;6263198;22;20019;-82
2023/10/13 06:42:55;;;;;;;7.90;6.60;;;23.20;99.90;;;;;;6264755;22;20011;-78
2023/10/13 06:45:22;;;;;;;8.18;6.30;;;23.10;99.90;;;;;;6263501;22;20348;-81
2023/10/13 06:47:53;;;;;;;9.02;6.95;;;22.70;99.90;;;;;;6238537;22;20240;-80
2023/10/13 06:50:24;;;;;;;7.03;5.97;;;22.30;99.90;;;;;;6240685;22;20170;-81
2023/10/13 06:52:50;;;;;;;6.60;5.85;;;22.40;99.90;;;;;;6265015;22;20007;-80
2023/10/13 06:55:17;;;;;;;8.43;4.75;;;23.20;99.90;;;;;;6264509;22;20019;-80
2023/10/13 06:57:44;;;;;;;11.27;7.38;;;23.30;99.90;;;;;;6288136;22;20039;-81
2023/10/13 07:00:29;;;;;;;7.93;6.40;;;22.70;99.90;;;;;;6226948;23;20027;-82
2023/10/13 07:03:05;;;;;;;9.30;5.82;;;23.00;99.90;;;;;;6228156;23;20012;-80
2023/10/13 07:05:38;;;;;;;10.90;7.10;;;23.20;99.90;;;;;;6228435;23;20012;-80
2023/10/13 07:08:06;;;;;;;9.60;6.40;;;23.50;99.90;;;;;;6228263;23;20049;-80
2023/10/13 07:10:44;;;;;;;8.25;5.50;;;23.20;99.90;;;;;;6227894;23;20082;-79
2023/10/13 07:13:13;;;;;;;8.23;5.65;;;23.20;99.90;;;;;;6253452;23;20008;-79
2023/10/13 07:15:44;;;;;;;7.32;5.07;;;23.40;99.90;;;;;;6228167;23;20019;-79
2023/10/13 07:18:13;;;;;;;9.93;6.20;;;23.30;99.90;;;;;;6227290;23;20297;-81
2023/10/13 07:20:43;;;;;;;9.95;5.18;;;23.60;99.90;;;;;;6253033;23;20252;-80
2023/10/13 07:23:19;;;;;;;7.50;5.43;;;23.30;99.90;;;;;;6252720;23;20505;-80
2023/10/13 07:26:02;;;;;;;8.55;5.57;;;23.00;99.90;;;;;;6228355;23;20019;-79
2023/10/13 07:28:35;;;;;;;8.65;5.50;;;23.60;99.90;;;;;;6252818;23;20030;-79
2023/10/13 07:33:33;;;;;;;8.10;5.80;;;22.70;99.90;;;;;;6252142;23;20027;-79
2023/10/13 07:36:01;;;;;;;10.45;5.55;;;23.50;99.90;;;;;;6251922;23;20020;-79
2023/10/13 07:38:30;;;;;;;7.82;5.40;;;23.40;99.90;;;;;;6225929;23;20047;-80
2023/10/13 07:41:07;;;;;;;9.82;5.70;;;22.70;99.90;;;;;;6225732;23;20027;-79
2023/10/13 07:43:33;;;;;;;10.32;5.85;;;23.00;99.90;;;;;;6227032;23;20202;-79
2023/10/13 07:45:59;;;;;;;10.35;6.15;;;23.10;99.90;;;;;;6251893;23;20047;-79
2023/10/13 07:48:25;;;;;;;10.65;5.88;;;22.60;99.90;;;;;;6226711;23;20050;-80
2023/10/13 07:51:04;;;;;;;11.18;5.82;;;23.40;99.90;;;;;;6226473;23;20012;-79
2023/10/13 07:53:35;;;;;;;13.05;6.10;;;22.50;99.90;;;;;;6252260;22;20008;-80
2023/10/13 07:56:22;;;;;;;11.98;6.18;;;23.50;99.90;;;;;;6251356;23;20035;-80
2023/10/13 07:59:00;;;;;;;10.02;5.63;;;23.00;99.90;;;;;;6237568;22;20027;-79
2023/10/13 08:01:26;;;;;;;14.70;6.82;;;22.80;99.90;;;;;;6258688;22;20050;-79
2023/10/13 08:04:09;;;;;;;11.25;5.45;;;23.70;99.90;;;;;;6255920;22;20101;-79
2023/10/13 08:06:36;;;;;;;8.85;5.47;;;22.40;99.90;;;;;;6282001;22;20020;-78
2023/10/13 08:09:09;;;;;;;9.60;5.55;;;22.40;99.90;;;;;;6281698;22;20098;-79
2023/10/13 08:11:38;;;;;;;10.93;6.25;;;22.40;99.90;;;;;;6282222;22;20074;-79
2023/10/13 08:14:23;;;;;;;15.18;7.28;;;22.50;99.90;;;;;;6281661;22;20008;-79
2023/10/13 08:16:52;;;;;;;12.75;6.30;;;22.40;99.90;;;;;;6255008;22;20015;-81
2023/10/13 08:19:26;;;;;;;9.50;5.68;;;23.50;99.90;;;;;;6281573;22;20090;-80
2023/10/13 08:21:58;;;;;;;12.00;6.30;;;22.60;99.90;;;;;;6257193;22;20019;-80
2023/10/13 08:24:29;;;;;;;9.30;6.07;;;23.60;99.90;;;;;;6231986;22;20086;-81
2023/10/13 08:27:32;;;;;;;6.88;4.30;;;23.70;99.90;;;;;;6257981;22;20035;-80
2023/10/13 08:35:09;;;;;;;12.90;7.53;;;23.60;99.90;;;;;;6282590;22;20015;-80
2023/10/13 08:43:11;;;;;;;10.32;6.03;;;23.00;99.90;;;;;;6282138;22;20020;-80
2023/10/13 08:48:13;;;;;;;11.65;7.00;;;23.00;99.90;;;;;;6281125;22;20042;-81
2023/10/13 08:53:45;;;;;;;16.02;6.70;;;23.70;99.90;;;;;;6282618;22;20020;-78
2023/10/13 08:56:32;;;;;;;11.10;6.20;;;22.90;99.90;;;;;;6257063;22;20078;-78
2023/10/13 08:59:05;;;;;;;10.68;6.65;;;23.40;99.90;;;;;;6259698;22;20099;-78
2023/10/13 09:01:48;;;;;;;15.05;6.43;;;23.20;99.90;;;;;;6258357;22;20046;-78
2023/10/13 09:09:59;;;;;;;7.05;4.72;;;23.00;99.90;;;;;;6279603;22;20046;-79
2023/10/13 09:15:59;;;;;;;13.43;7.78;;;24.50;99.90;;;;;;6282286;22;20019;-79
2023/10/13 09:18:42;;;;;;;11.10;5.82;;;23.20;99.90;;;;;;6281454;22;20023;-79
2023/10/13 09:24:15;;;;;;;13.32;7.75;;;24.90;99.90;;;;;;6283804;22;19916;-78
2023/10/13 09:26:39;;;;;;;20.02;8.65;;;23.40;99.90;;;;;;6283750;22;20011;-79
2023/10/13 09:29:18;;;;;;;11.20;6.25;;;23.60;99.90;;;;;;6282698;22;20016;-81
2023/10/13 09:31:59;;;;;;;9.80;5.45;;;24.10;99.90;;;;;;6257388;22;20229;-80
2023/10/13 09:34:29;;;;;;;10.32;6.35;;;25.00;99.90;;;;;;6235658;22;20062;-80
2023/10/13 09:36:58;;;;;;;14.73;7.97;;;23.70;99.90;;;;;;6258337;22;20008;-80
2023/10/13 09:39:48;;;;;;;11.18;7.38;;;24.60;99.90;;;;;;6283533;22;20008;-81
2023/10/13 09:42:12;;;;;;;13.35;7.72;;;24.70;99.90;;;;;;6282467;22;20252;-79
2023/10/13 09:44:40;;;;;;;11.63;7.68;;;23.80;99.90;;;;;;6231116;22;20011;-78
2023/10/13 09:47:17;;;;;;;11.07;5.50;;;23.70;99.90;;;;;;6283473;22;20063;-78
2023/10/13 09:49:48;;;;;;;15.55;7.32;;;25.20;99.90;;;;;;6258442;22;20039;-78
2023/10/13 09:52:19;;;;;;;14.55;7.90;;;24.00;99.90;;;;;;6233585;22;20015;-78
2023/10/13 09:55:20;;;;;;;13.63;7.82;;;24.10;99.90;;;;;;6257598;22;20278;-79
2023/10/13 09:57:57;;;;;;;12.98;7.97;;;25.30;99.90;;;;;;6258446;22;20087;-80
2023/10/13 10:00:46;;;;;;;11.70;7.72;;;25.40;99.90;;;;;;6283730;22;20268;-80
2023/10/13 10:03:15;;;;;;;11.93;7.30;;;24.20;99.90;;;;;;6258157;22;20020;-81
2023/10/13 10:05:49;;;;;;;10.60;6.47;;;25.00;99.90;;;;;;6256929;22;20122;-80
2023/10/13 10:08:31;;;;;;;11.05;6.72;;;24.60;99.90;;;;;;6234154;22;20015;-80
2023/10/13 10:11:21;;;;;;;12.13;7.18;;;24.50;99.90;;;;;;6283649;22;20225;-80
2023/10/13 10:14:00;;;;;;;11.90;6.20;;;24.50;99.90;;;;;;6232026;22;20063;-80
2023/10/13 10:16:53;;;;;;;15.02;6.50;;;24.70;99.90;;;;;;6258101;22;20012;-79
2023/10/13 10:19:18;;;;;;;10.32;5.82;;;25.40;99.90;;;;;;6258147;22;20004;-80
2023/10/13 10:21:44;;;;;;;11.75;6.10;;;24.80;99.90;;;;;;6232739;22;20411;-80
2023/10/13 10:24:38;;;;;;;9.27;5.78;;;25.50;99.90;;;;;;6257651;22;20018;-80
2023/10/13 10:27:04;;;;;;;8.23;5.47;;;25.20;99.90;;;;;;6253458;22;20018;-80
2023/10/13 10:29:32;;;;;;;16.23;6.38;;;25.10;99.90;;;;;;6257956;22;20075;-80
2023/10/13 10:31:59;;;;;;;13.50;5.70;;;24.70;99.90;;;;;;6283313;22;20003;-80
2023/10/13 10:34:32;;;;;;;11.70;6.10;;;25.40;99.90;;;;;;6232837;22;20042;-80
2023/10/13 10:36:58;;;;;;;12.23;5.53;;;25.50;99.90;;;;;;6282441;22;20020;-80
2023/10/13 10:39:45;;;;;;;12.70;5.28;;;25.00;99.90;;;;;;6283424;22;20063;-80
2023/10/13 10:42:29;;;;;;;13.18;6.20;;;25.10;99.90;;;;;;6282983;22;20015;-80
2023/10/13 10:45:05;;;;;;;11.27;5.97;;;25.10;99.90;;;;;;6282908;22;20018;-80
2023/10/13 10:47:31;;;;;;;11.93;5.68;;;25.40;99.90;;;;;;6257572;22;20227;-80
2023/10/13 10:50:07;;;;;;;7.97;4.70;;;25.20;99.90;;;;;;6257859;22;20240;-80
2023/10/13 10:52:37;;;;;;;11.75;5.15;;;25.70;99.90;;;;;;6257798;22;20008;-80
2023/10/13 10:55:07;;;;;;;11.63;5.35;;;25.40;99.90;;;;;;6257864;22;20022;-79
2023/10/13 10:57:37;;;;;;;9.75;4.55;;;25.60;99.90;;;;;;6282489;22;20011;-78
2023/10/13 11:00:14;;;;;;;10.40;5.43;;;25.60;99.90;;;;;;6257400;22;20253;-80
2023/10/13 11:02:40;;;;;;;11.02;5.10;;;25.70;99.90;;;;;;6234139;22;20038;-78
2023/10/13 11:05:17;;;;;;;13.18;5.57;;;25.70;99.90;;;;;;6232664;22;20354;-78
2023/10/13 11:07:52;;;;;;;10.75;5.22;;;25.60;99.90;;;;;;6233568;22;20012;-78
2023/10/13 11:10:27;;;;;;;15.75;6.13;;;25.90;99.90;;;;;;6257147;22;20011;-78
2023/10/13 11:13:50;;;;;;;12.85;5.05;;;26.10;99.90;;;;;;6257393;22;20302;-78
2023/10/13 11:15:50;;;;;;;12.23;5.25;;;26.00;99.90;;;;;;6266709;22;20065;-80
2023/10/13 11:18:25;;;;;;;10.13;5.28;;;26.00;99.90;;;;;;6256750;22;20007;-79
2023/10/13 11:20:56;;;;;;;10.02;4.90;;;26.10;99.90;;;;;;6259685;22;20098;-78
2023/10/13 11:23:28;;;;;;;12.38;5.75;;;26.10;99.90;;;;;;6282971;22;20201;-80
2023/10/13 11:26:00;;;;;;;16.60;5.90;;;26.10;99.90;;;;;;6283067;22;20012;-78
2023/10/13 11:28:31;;;;;;;13.77;5.13;;;26.20;99.90;;;;;;6256673;22;20237;-80
2023/10/13 11:30:58;;;;;;;13.63;4.95;;;25.90;99.90;;;;;;6233076;22;20008;-78
2023/10/13 11:33:28;;;;;;;15.00;5.70;;;26.10;99.90;;;;;;6257292;22;20050;-79
2023/10/13 11:35:57;;;;;;;11.63;5.30;;;26.10;99.90;;;;;;6282757;22;20019;-79
2023/10/13 11:43:52;;;;;;;18.33;6.45;;;26.00;99.90;;;;;;6230108;22;20451;-79
2023/10/13 11:51:44;;;;;;;12.95;6.10;;;25.70;99.90;;;;;;6259168;22;20020;-80
2023/10/13 11:54:12;;;;;;;13.82;5.53;;;25.30;99.90;;;;;;6256684;22;20014;-80
2023/10/13 11:56:38;;;;;;;14.52;6.15;;;25.50;99.90;;;;;;6282746;22;20046;-79
2023/10/13 11:59:05;;;;;;;13.30;6.20;;;25.10;99.90;;;;;;6256859;22;20026;-79
2023/10/13 12:04:40;;;;;;;11.98;6.10;;;25.40;99.90;;;;;;6283266;22;20022;-78
2023/10/13 12:12:23;;;;;;;13.52;5.63;;;25.40;99.90;;;;;;6281597;22;20011;-78
2023/10/13 12:14:55;;;;;;;10.70;6.15;;;25.40;99.90;;;;;;6281069;22;20018;-79
2023/10/13 12:17:27;;;;;;;17.38;6.40;;;25.60;99.90;;;;;;6255520;22;20030;-77
2023/10/13 12:19:54;;;;;;;13.00;6.18;;;25.30;99.90;;;;;;6282560;22;20016;-78
2023/10/13 12:22:35;;;;;;;16.38;6.32;;;25.30;99.90;;;;;;6282142;22;20012;-78
2023/10/13 12:25:05;;;;;;;10.88;5.63;;;25.50;99.90;;;;;;6282397;22;20011;-78
2023/10/13 12:27:35;;;;;;;16.02;6.20;;;25.60;99.90;;;;;;6232632;22;20205;-79
2023/10/13 12:30:07;;;;;;;13.52;6.25;;;25.60;99.90;;;;;;6255992;22;20008;-78
2023/10/13 12:32:34;;;;;;;11.48;5.95;;;25.70;99.90;;;;;;6231008;22;20035;-79
2023/10/13 12:35:27;;;;;;;12.68;5.53;;;25.70;99.90;;;;;;6230447;22;20070;-78
2023/10/13 12:51:20;;;;;;;17.05;6.40;;;25.50;99.90;;;;;;6260296;22;20012;-78
2023/10/13 12:53:48;;;;;;;13.23;6.55;;;25.30;99.90;;;;;;6280217;22;20296;-78
2023/10/13 12:56:14;;;;;;;17.92;6.93;;;25.30;99.90;;;;;;6257682;22;20011;-79
2023/10/13 12:58:39;;;;;;;13.13;6.28;;;25.40;99.90;;;;;;6282509;22;20301;-79
2023/10/13 13:01:08;;;;;;;13.55;6.47;;;25.30;99.90;;;;;;6257863;22;20035;-78
2023/10/13 13:03:34;;;;;;;12.15;6.78;;;25.20;99.90;;;;;;6232444;22;20011;-79
2023/10/13 13:06:07;;;;;;;11.60;6.10;;;25.10;99.90;;;;;;6280920;22;20038;-78
2023/10/13 13:08:35;;;;;;;17.77;7.45;;;25.20;99.90;;;;;;6257198;22;20008;-79
2023/10/13 13:11:01;;;;;;;14.82;7.25;;;25.10;99.90;;;;;;6282660;22;20007;-79
2023/10/13 13:13:27;;;;;;;16.73;7.20;;;25.00;99.90;;;;;;6206513;22;20022;-80
2023/10/13 13:15:53;;;;;;;16.13;7.28;;;24.90;99.90;;;;;;6232342;22;20202;-80
2023/10/13 13:18:20;;;;;;;13.82;6.57;;;25.10;99.90;;;;;;6209293;22;20011;-81
2023/10/13 13:20:55;;;;;;;14.40;7.75;;;24.90;99.90;;;;;;6233088;22;20065;-80
2023/10/13 13:23:25;;;;;;;14.38;8.15;;;25.10;99.90;;;;;;6257906;22;20237;-79
2023/10/13 13:25:52;;;;;;;16.90;8.23;;;24.70;99.90;;;;;;6257558;22;20342;-79
2023/10/13 13:28:18;;;;;;;13.80;7.82;;;24.90;99.90;;;;;;6258651;22;20015;-79
2023/10/13 13:30:47;;;;;;;12.88;7.97;;;24.90;99.90;;;;;;6258446;22;20023;-79
2023/10/13 13:33:14;;;;;;;15.07;8.75;;;24.70;99.90;;;;;;6283701;22;20015;-80
2023/10/13 13:35:42;;;;;;;16.83;8.45;;;24.70;99.90;;;;;;6233788;22;20046;-79
2023/10/13 13:38:54;;;;;;;13.85;8.82;;;24.60;99.90;;;;;;6234776;22;20011;-80
2023/10/13 13:41:03;;;;;;;13.10;7.72;;;24.50;99.90;;;;;;6271027;22;20141;-79
2023/10/13 13:43:37;;;;;;;13.60;8.57;;;24.60;99.90;;;;;;6257584;22;20041;-79
2023/10/13 13:46:16;;;;;;;12.93;7.80;;;24.70;99.90;;;;;;6234387;22;20019;-79
2023/10/13 13:48:43;;;;;;;15.73;8.73;;;24.70;99.90;;;;;;6259391;22;20018;-80
2023/10/13 13:51:14;;;;;;;14.80;7.82;;;24.50;99.90;;;;;;6259147;22;20007;-79
2023/10/13 13:53:44;;;;;;;13.15;7.47;;;24.60;99.90;;;;;;6282876;22;20076;-80
2023/10/13 13:56:16;;;;;;;18.13;7.60;;;24.80;99.90;;;;;;6231890;22;20019;-80
2023/10/13 13:58:43;;;;;;;17.88;8.40;;;24.80;99.90;;;;;;6256451;22;20195;-78
2023/10/13 14:01:12;;;;;;;13.20;7.75;;;24.70;99.90;;;;;;6255956;22;20024;-79
2023/10/13 14:03:48;;;;;;;16.90;7.72;;;24.80;99.90;;;;;;6258503;22;20082;-79
2023/10/13 14:06:21;;;;;;;13.00;8.05;;;24.80;99.90;;;;;;6233878;22;20066;-79
2023/10/13 14:08:56;;;;;;;17.65;8.02;;;24.50;99.90;;;;;;6232613;22;20015;-79
2023/10/13 14:14:36;;;;;;;14.57;7.90;;;24.50;99.90;;;;;;6260386;22;20015;-80
2023/10/13 14:17:07;;;;;;;14.82;7.70;;;24.70;99.90;;;;;;6282628;22;20251;-80
2023/10/13 14:19:34;;;;;;;13.23;8.25;;;24.70;99.90;;;;;;6256294;22;20019;-79
2023/10/13 14:22:06;;;;;;;12.63;7.13;;;24.70;99.90;;;;;;6232208;22;20046;-79
2023/10/13 14:24:43;;;;;;;14.73;7.90;;;24.90;99.90;;;;;;6259052;22;20477;-79
2023/10/13 14:27:15;;;;;;;13.75;7.85;;;24.70;99.90;;;;;;6261254;22;20294;-79
2023/10/13 14:29:44;;;;;;;15.88;7.75;;;24.90;99.90;;;;;;6282163;22;20008;-80
2023/10/13 14:32:12;;;;;;;19.15;8.13;;;24.80;99.90;;;;;;6258068;22;20008;-78
2023/10/13 14:34:42;;;;;;;12.30;7.20;;;25.00;99.90;;;;;;6258035;22;20007;-78
2023/10/13 14:37:12;;;;;;;17.80;7.90;;;24.70;99.90;;;;;;6234281;22;20007;-79
2023/10/13 14:39:39;;;;;;;17.15;7.72;;;25.00;99.90;;;;;;6282700;22;20007;-79
2023/10/13 14:42:07;;;;;;;15.07;7.75;;;24.70;99.90;;;;;;6231889;22;20035;-78
2023/10/13 14:44:34;;;;;;;11.82;8.02;;;24.90;99.90;;;;;;6257472;22;20089;-79
2023/10/13 14:47:08;;;;;;;19.55;7.78;;;24.70;99.90;;;;;;6258055;22;20015;-78
2023/10/13 14:49:35;;;;;;;;;;;24.80;99.90;;;;;;6257938;22;20077;-79
2023/10/13 14:52:02;;;;;;;14.93;8.07;;;24.70;99.90;;;;;;6281178;22;20093;-79
2023/10/13 14:54:33;;;;;;;12.85;7.03;;;24.80;99.90;;;;;;6232302;22;20486;-79
2023/10/13 14:57:03;;;;;;;19.88;7.78;;;24.80;99.90;;;;;;6283322;22;20011;-80
2023/10/13 14:59:33;;;;;;;13.02;7.20;;;24.70;99.90;;;;;;6257774;22;20031;-79
2023/10/13 15:02:00;;;;;;;15.75;7.55;;;24.80;99.90;;;;;;6257038;22;20015;-79
2023/10/13 15:04:28;;;;;;;13.18;7.95;;;24.70;99.90;;;;;;6257064;22;20007;-79
2023/10/13 15:06:55;;;;;;;16.67;7.50;;;24.70;99.90;;;;;;6256492;22;20027;-78
2023/10/13 15:09:23;;;;;;;15.10;7.50;;;24.90;99.90;;;;;;6231790;22;20026;-78
2023/10/13 15:11:56;;;;;;;16.23;7.45;;;24.70;99.90;;;;;;6257404;22;20063;-82
2023/10/13 15:14:29;;;;;;;13.07;7.20;;;24.70;99.90;;;;;;6283240;22;20043;-84
2023/10/13 15:17:00;;;;;;;14.20;7.25;;;24.80;99.90;;;;;;6258131;22;20008;-80
2023/10/13 15:19:29;;;;;;;16.63;8.10;;;24.70;99.90;;;;;;6259033;22;20014;-83
2023/10/13 15:21:59;;;;;;;16.85;7.57;;;24.60;99.90;;;;;;6257908;22;20037;-82
2023/10/13 15:24:57;;;;;;;19.05;8.13;;;24.60;99.90;;;;;;6231153;22;20066;-81
2023/10/13 15:27:23;;;;;;;18.70;9.02;;;24.70;99.90;;;;;;6257337;22;20209;-81
2023/10/13 15:29:50;;;;;;;15.15;8.98;;;24.50;99.90;;;;;;6258258;22;20008;-80
2023/10/13 15:35:04;;;;;;;20.05;9.00;;;24.30;99.90;;;;;;6240333;22;20022;-79
2023/10/13 15:37:30;;;;;;;17.00;9.40;;;24.20;99.90;;;;;;6232989;22;20078;-79
2023/10/13 15:39:56;;;;;;;17.10;10.15;;;24.40;99.90;;;;;;6232546;22;20019;-80
2023/10/13 15:42:22;;;;;;;20.27;8.57;;;24.50;99.90;;;;;;6257484;22;20071;-78
2023/10/13 15:44:49;;;;;;;13.63;9.02;;;24.40;99.90;;;;;;6256678;22;20310;-78
2023/10/13 15:47:17;;;;;;;15.75;8.93;;;24.40;99.90;;;;;;6257011;22;20245;-77
2023/10/13 15:49:43;;;;;;;13.35;8.60;;;24.50;99.90;;;;;;6207191;22;20178;-78
2023/10/13 15:52:09;;;;;;;17.23;9.25;;;24.20;99.90;;;;;;6231714;22;20015;-78
2023/10/13 15:54:35;;;;;;;18.27;10.13;;;24.50;99.90;;;;;;6231680;22;20008;-78